createdAt,value
2018-09-24T00:00:26.577Z,20.00
2018-09-24T00:02:59.757Z,20.00
2018-09-24T00:05:33.140Z,20.00
2018-09-24T00:08:06.329Z,20.00
2018-09-24T00:10:39.526Z,20.00
2018-09-24T00:13:12.925Z,20.00
2018-09-24T00:15:46.155Z,19.90
2018-09-24T00:18:19.732Z,19.90
2018-09-24T00:20:52.913Z,19.90
2018-09-24T00:23:27.521Z,19.90
2018-09-24T00:26:01.218Z,19.90
2018-09-24T00:28:34.187Z,20.00
2018-09-24T00:31:07.173Z,20.00
2018-09-24T00:33:40.571Z,19.90
2018-09-24T00:36:14.245Z,19.80
2018-09-24T00:38:47.867Z,19.80
2018-09-24T00:41:21.224Z,19.80
2018-09-24T00:43:54.806Z,19.80
2018-09-24T00:46:28.542Z,19.70
2018-09-24T00:49:02.186Z,19.70
2018-09-24T00:51:35.773Z,19.70
2018-09-24T00:54:09.390Z,19.60
2018-09-24T00:56:42.644Z,19.60
2018-09-24T00:59:16.109Z,19.70
2018-09-24T01:01:50.595Z,19.70
2018-09-24T01:04:23.868Z,19.60
2018-09-24T01:06:57.034Z,19.60
2018-09-24T01:09:30.092Z,19.60
2018-09-24T01:12:03.929Z,19.70
2018-09-24T01:14:37.343Z,19.60
2018-09-24T01:17:10.504Z,19.60
2018-09-24T01:23:05.666Z,19.60
2018-09-24T01:25:40.184Z,19.70
2018-09-24T01:28:14.190Z,19.60
2018-09-24T01:30:47.562Z,19.60
2018-09-24T01:33:21.032Z,19.60
2018-09-24T01:35:54.031Z,19.50
2018-09-24T01:41:48.776Z,19.50
2018-09-24T01:44:22.310Z,19.30
2018-09-24T01:46:55.306Z,19.40
2018-09-24T01:49:28.543Z,19.40
2018-09-24T01:52:02.620Z,19.20
2018-09-24T01:54:35.824Z,19.00
2018-09-24T01:57:16.774Z,18.50
2018-09-24T01:59:53.552Z,18.30
2018-09-24T02:02:25.971Z,18.10
2018-09-24T02:04:59.580Z,17.80
2018-09-24T02:07:32.523Z,17.80
2018-09-24T02:10:06.554Z,17.80
2018-09-24T02:12:41.510Z,17.90
2018-09-24T02:15:14.845Z,17.90
2018-09-24T02:17:48.315Z,17.90
2018-09-24T02:20:21.440Z,18.00
2018-09-24T02:22:54.336Z,17.80
2018-09-24T02:25:28.240Z,18.00
2018-09-24T02:28:03.491Z,17.90
2018-09-24T02:30:38.887Z,17.90
2018-09-24T02:33:14.773Z,17.90
2018-09-24T02:35:53.946Z,18.00
2018-09-24T02:38:28.935Z,18.00
2018-09-24T02:41:03.375Z,18.00
2018-09-24T02:43:36.195Z,18.10
2018-09-24T02:46:09.463Z,18.10
2018-09-24T02:48:43.717Z,18.10
2018-09-24T02:51:16.940Z,18.10
2018-09-24T02:57:20.460Z,18.10
2018-09-24T02:59:53.393Z,18.10
2018-09-24T03:02:26.279Z,18.00
2018-09-24T03:04:58.780Z,18.10
2018-09-24T03:07:30.874Z,18.00
2018-09-24T03:10:03.148Z,18.10
2018-09-24T03:15:57.351Z,18.20
2018-09-24T03:18:30.387Z,18.10
2018-09-24T03:21:02.985Z,18.10
2018-09-24T03:23:35.946Z,18.10
2018-09-24T03:26:08.359Z,18.10
2018-09-24T03:28:40.900Z,18.00
2018-09-24T03:31:13.951Z,18.00
2018-09-24T03:33:47.248Z,18.00
2018-09-24T03:36:21.778Z,18.00
2018-09-24T03:38:54.321Z,18.00
2018-09-24T03:41:26.853Z,18.00
2018-09-24T03:43:59.377Z,18.00
2018-09-24T03:46:31.944Z,17.90
2018-09-24T03:49:04.303Z,17.90
2018-09-24T03:51:36.635Z,17.90
2018-09-24T03:54:09.441Z,17.90
2018-09-24T03:56:41.856Z,17.90
2018-09-24T03:59:14.304Z,17.90
2018-09-24T04:01:46.706Z,17.90
2018-09-24T04:04:26.138Z,17.90
2018-09-24T04:07:03.007Z,17.90
2018-09-24T04:09:40.272Z,17.90
2018-09-24T04:12:19.413Z,17.90
2018-09-24T04:14:56.845Z,17.90
2018-09-24T04:17:35.064Z,18.00
2018-09-24T04:20:12.028Z,18.00
2018-09-24T04:22:50.335Z,18.00
2018-09-24T04:25:26.915Z,18.00
2018-09-24T04:28:04.458Z,18.00
2018-09-24T04:30:41.578Z,17.90
2018-09-24T04:33:18.241Z,17.80
2018-09-24T04:35:54.862Z,17.70
2018-09-24T04:38:31.467Z,17.60
2018-09-24T04:41:08.034Z,17.40
2018-09-24T04:43:44.734Z,16.80
2018-09-24T04:46:23.092Z,16.40
2018-09-24T04:49:00.697Z,16.20
2018-09-24T04:51:37.509Z,16.20
2018-09-24T04:54:14.112Z,16.20
2018-09-24T04:56:50.702Z,16.30
2018-09-24T05:02:50.898Z,16.40
2018-09-24T05:05:31.433Z,16.40
2018-09-24T05:08:14.476Z,16.50
2018-09-24T05:10:52.148Z,16.50
2018-09-24T05:13:29.832Z,16.40
2018-09-24T05:16:07.527Z,16.40
2018-09-24T05:18:44.896Z,16.50
2018-09-24T05:21:22.869Z,16.50
2018-09-24T05:24:00.389Z,16.50
2018-09-24T05:26:39.624Z,16.60
2018-09-24T05:29:17.305Z,16.70
2018-09-24T05:35:26.600Z,16.70
2018-09-24T05:38:03.883Z,16.70
2018-09-24T05:40:41.244Z,16.80
2018-09-24T05:43:18.690Z,16.70
2018-09-24T05:45:56.229Z,16.70
2018-09-24T05:48:33.700Z,16.60
2018-09-24T05:54:42.202Z,16.60
2018-09-24T05:57:19.031Z,16.60
2018-09-24T05:59:56.313Z,16.70
2018-09-24T06:02:33.507Z,16.70
2018-09-24T06:05:10.788Z,16.70
2018-09-24T06:07:47.628Z,16.70
2018-09-24T06:10:49.185Z,16.60
2018-09-24T06:13:26.596Z,16.50
2018-09-24T06:16:03.480Z,16.50
2018-09-24T06:18:40.374Z,16.60
2018-09-24T06:21:17.523Z,16.60
2018-09-24T06:23:54.395Z,16.60
2018-09-24T06:26:31.283Z,16.60
2018-09-24T06:29:08.200Z,16.60
2018-09-24T06:31:45.570Z,16.60
2018-09-24T06:34:22.576Z,16.60
2018-09-24T06:36:59.574Z,16.60
2018-09-24T06:42:57.637Z,16.60
2018-09-24T06:45:35.094Z,16.60
2018-09-24T06:48:12.438Z,16.60
2018-09-24T06:50:50.025Z,16.50
2018-09-24T06:53:27.098Z,16.60
2018-09-24T06:56:04.504Z,16.60
2018-09-24T06:58:42.573Z,16.70
2018-09-24T07:01:19.860Z,16.70
2018-09-24T07:03:57.411Z,16.60
2018-09-24T07:06:34.839Z,16.60
2018-09-24T07:09:14.085Z,16.50
2018-09-24T07:11:51.221Z,16.60
2018-09-24T07:14:29.291Z,16.60
2018-09-24T07:17:06.894Z,16.60
2018-09-24T07:19:45.666Z,16.60
2018-09-24T07:25:45.960Z,16.60
2018-09-24T07:28:24.850Z,16.60
2018-09-24T07:31:02.097Z,16.60
2018-09-24T07:33:40.993Z,16.60
2018-09-24T07:36:19.000Z,16.60
2018-09-24T07:38:56.705Z,16.70
2018-09-24T07:41:34.183Z,16.60
2018-09-24T07:44:13.175Z,16.60
2018-09-24T07:46:50.519Z,16.60
2018-09-24T07:49:28.293Z,16.60
2018-09-24T07:52:06.018Z,16.60
2018-09-24T07:54:43.859Z,16.60
2018-09-24T07:57:22.570Z,16.60
2018-09-24T07:59:59.845Z,16.60
2018-09-24T08:02:39.365Z,16.60
2018-09-24T08:05:16.505Z,16.60
2018-09-24T08:07:53.937Z,16.60
2018-09-24T08:10:33.027Z,16.70
2018-09-24T08:13:10.363Z,16.60
2018-09-24T08:15:47.911Z,16.70
2018-09-24T08:18:25.441Z,16.70
2018-09-24T08:21:02.944Z,16.70
2018-09-24T08:23:40.871Z,16.70
2018-09-24T08:26:18.181Z,16.70
2018-09-24T08:28:56.537Z,16.70
2018-09-24T08:31:33.805Z,16.70
2018-09-24T08:34:12.527Z,16.70
2018-09-24T08:36:50.116Z,16.70
2018-09-24T08:39:28.064Z,16.70
2018-09-24T08:42:05.344Z,16.80
2018-09-24T08:44:43.097Z,16.80
2018-09-24T08:47:22.998Z,16.80
2018-09-24T08:50:00.445Z,16.80
2018-09-24T08:52:41.615Z,16.90
2018-09-24T08:55:18.888Z,16.90
2018-09-24T08:57:56.844Z,16.90
2018-09-24T09:00:34.327Z,16.90
2018-09-24T09:03:12.232Z,16.90
2018-09-24T09:05:49.921Z,16.90
2018-09-24T09:08:27.417Z,16.80
2018-09-24T09:11:06.136Z,16.90
2018-09-24T09:13:43.591Z,16.90
2018-09-24T09:16:20.992Z,16.90
2018-09-24T09:18:58.476Z,16.90
2018-09-24T09:21:36.057Z,16.90
2018-09-24T09:24:12.434Z,16.90
2018-09-24T09:30:17.017Z,16.90
2018-09-24T09:32:54.751Z,16.90
2018-09-24T09:35:32.128Z,16.90
2018-09-24T09:38:09.687Z,16.90
2018-09-24T09:40:46.633Z,16.90
2018-09-24T09:43:24.017Z,16.90
2018-09-24T09:46:01.336Z,16.90
2018-09-24T09:48:38.463Z,16.80
2018-09-24T09:51:16.013Z,16.80
2018-09-24T09:53:52.842Z,16.80
2018-09-24T09:56:29.995Z,16.70
2018-09-24T09:59:07.260Z,16.70
2018-09-24T10:01:44.500Z,16.70
2018-09-24T10:04:21.687Z,16.70
2018-09-24T10:06:58.683Z,16.70
2018-09-24T10:09:35.257Z,16.60
2018-09-24T10:12:12.764Z,16.60
2018-09-24T10:14:49.453Z,16.60
2018-09-24T10:17:26.663Z,16.60
2018-09-24T10:20:05.492Z,16.60
2018-09-24T10:22:57.415Z,16.60
2018-09-24T10:25:35.040Z,16.60
2018-09-24T10:28:12.290Z,16.60
2018-09-24T10:30:49.619Z,16.60
2018-09-24T10:33:26.612Z,16.60
2018-09-24T10:36:03.982Z,16.60
2018-09-24T10:38:41.683Z,16.60
2018-09-24T10:41:19.095Z,16.70
2018-09-24T10:43:56.503Z,16.70
2018-09-24T10:46:33.756Z,16.70
2018-09-24T10:49:11.148Z,16.70
2018-09-24T10:51:48.639Z,16.70
2018-09-24T10:54:25.853Z,16.70
2018-09-24T10:57:03.465Z,16.70
2018-09-24T10:59:40.970Z,16.70
2018-09-24T11:02:18.587Z,16.60
2018-09-24T11:04:55.789Z,16.60
2018-09-24T11:07:33.107Z,16.60
2018-09-24T11:10:10.211Z,16.50
2018-09-24T11:12:47.841Z,16.50
2018-09-24T11:15:25.078Z,16.50
2018-09-24T11:18:02.258Z,16.50
2018-09-24T11:20:39.617Z,16.50
2018-09-24T11:23:17.205Z,16.40
2018-09-24T11:25:54.494Z,16.40
2018-09-24T11:28:31.524Z,16.50
2018-09-24T11:31:08.447Z,16.50
2018-09-24T11:33:45.774Z,16.40
2018-09-24T11:36:23.154Z,16.40
2018-09-24T11:39:02.165Z,16.40
2018-09-24T11:41:39.302Z,16.50
2018-09-24T11:44:16.883Z,16.40
2018-09-24T11:46:53.896Z,16.40
2018-09-24T11:52:52.996Z,16.50
2018-09-24T11:55:30.904Z,16.40
2018-09-24T11:58:07.564Z,16.50
2018-09-24T12:00:44.506Z,16.50
2018-09-24T12:03:22.316Z,16.50
2018-09-24T12:05:59.107Z,16.50
2018-09-24T12:08:35.993Z,16.50
2018-09-24T12:14:44.984Z,16.50
2018-09-24T12:17:23.507Z,16.50
2018-09-24T12:20:01.499Z,16.50
2018-09-24T12:22:38.860Z,16.50
2018-09-24T12:25:16.863Z,16.60
2018-09-24T12:27:57.120Z,16.60
2018-09-24T12:30:39.354Z,16.70
2018-09-24T12:33:17.192Z,16.60
2018-09-24T12:35:54.706Z,16.70
2018-09-24T12:38:32.534Z,16.70
2018-09-24T12:41:09.984Z,16.70
2018-09-24T12:43:48.557Z,16.80
2018-09-24T12:46:26.111Z,16.80
2018-09-24T12:49:03.717Z,16.80
2018-09-24T12:51:41.812Z,16.90
2018-09-24T12:54:19.449Z,16.90
2018-09-24T12:56:57.222Z,16.90
2018-09-24T12:59:36.101Z,17.00
2018-09-24T13:02:13.614Z,17.00
2018-09-24T13:04:51.228Z,17.00
2018-09-24T13:07:29.125Z,17.10
2018-09-24T13:10:06.532Z,17.20
2018-09-24T13:12:45.614Z,17.20
2018-09-24T13:15:23.349Z,17.40
2018-09-24T13:18:00.640Z,17.50
2018-09-24T13:20:38.259Z,17.60
2018-09-24T13:23:15.985Z,17.60
2018-09-24T13:25:53.588Z,17.50
2018-09-24T13:28:32.445Z,17.50
2018-09-24T13:31:10.040Z,17.60
2018-09-24T13:33:48.952Z,17.80
2018-09-24T13:36:27.095Z,17.80
2018-09-24T13:39:04.965Z,17.80
2018-09-24T13:41:42.525Z,17.80
2018-09-24T13:44:20.184Z,18.00
2018-09-24T13:46:57.857Z,17.90
2018-09-24T13:49:35.277Z,17.90
2018-09-24T13:52:12.778Z,17.90
2018-09-24T13:54:50.537Z,17.90
2018-09-24T13:57:28.188Z,18.00
2018-09-24T14:00:05.851Z,18.10
2018-09-24T14:02:43.645Z,18.30
2018-09-24T14:05:20.919Z,18.50
2018-09-24T14:11:19.562Z,18.50
2018-09-24T14:13:57.423Z,18.60
2018-09-24T14:16:34.455Z,18.70
2018-09-24T14:19:12.725Z,19.10
2018-09-24T14:21:50.082Z,19.10
2018-09-24T14:25:06.957Z,18.90
2018-09-24T14:27:58.835Z,19.00
2018-09-24T14:30:48.620Z,19.30
2018-09-24T14:33:42.647Z,19.50
2018-09-24T14:36:35.132Z,20.00
2018-09-24T14:39:27.326Z,20.40
2018-09-24T14:42:05.370Z,20.30
2018-09-24T14:44:42.398Z,20.30
2018-09-24T14:47:20.946Z,20.30
2018-09-24T14:49:58.231Z,20.40
2018-09-24T14:52:35.553Z,20.60
2018-09-24T14:55:12.944Z,21.30
2018-09-24T14:57:50.162Z,22.10
2018-09-24T15:00:27.583Z,22.00
2018-09-24T15:03:05.581Z,21.80
2018-09-24T15:05:44.025Z,21.80
2018-09-24T15:08:21.858Z,21.90
2018-09-24T15:10:59.144Z,21.30
2018-09-24T15:13:37.378Z,21.20
2018-09-24T15:16:14.175Z,20.90
2018-09-24T15:18:51.154Z,20.70
2018-09-24T15:21:30.820Z,20.60
2018-09-24T15:24:10.907Z,20.40
2018-09-24T15:26:48.556Z,20.60
2018-09-24T15:29:25.719Z,20.60
2018-09-24T15:32:02.848Z,20.80
2018-09-24T15:34:39.703Z,20.90
2018-09-24T15:37:17.148Z,20.70
2018-09-24T15:39:55.536Z,20.50
2018-09-24T15:42:32.515Z,20.70
2018-09-24T15:45:09.929Z,20.60
2018-09-24T15:47:47.023Z,20.50
2018-09-24T15:50:24.454Z,20.50
2018-09-24T15:53:01.437Z,20.70
2018-09-24T15:55:38.698Z,21.00
2018-09-24T15:58:16.126Z,21.20
2018-09-24T16:00:53.086Z,21.40
2018-09-24T16:03:30.532Z,22.30
2018-09-24T16:06:08.504Z,23.40
2018-09-24T16:08:46.808Z,23.70
2018-09-24T16:11:25.032Z,23.40
2018-09-24T16:14:02.225Z,22.40
2018-09-24T16:17:11.706Z,21.90
2018-09-24T16:19:48.383Z,22.10
2018-09-24T16:22:25.170Z,22.50
2018-09-24T16:25:01.663Z,22.60
2018-09-24T16:27:38.725Z,23.40
2018-09-24T16:30:15.512Z,23.90
2018-09-24T16:32:52.910Z,23.90
2018-09-24T16:35:31.992Z,23.70
2018-09-24T16:38:08.627Z,23.10
2018-09-24T16:40:48.812Z,23.30
2018-09-24T16:46:37.191Z,23.50
2018-09-24T17:02:08.110Z,23.70
2018-09-24T17:04:48.951Z,23.90
2018-09-24T17:07:34.880Z,24.20
2018-09-24T17:10:17.735Z,24.00
2018-09-24T17:12:57.884Z,23.50
2018-09-24T17:15:40.644Z,24.10
2018-09-24T17:18:36.857Z,24.50
2018-09-24T17:24:12.141Z,25.30
2018-09-24T17:27:06.814Z,25.10
2018-09-24T17:30:06.219Z,24.00
2018-09-24T17:33:05.033Z,23.90
2018-09-24T17:35:51.010Z,24.00
2018-09-24T17:42:04.411Z,23.80
2018-09-24T17:44:58.686Z,24.60
2018-09-24T17:47:48.227Z,25.00
2018-09-24T17:50:36.662Z,24.10
2018-09-24T17:53:30.848Z,23.90
2018-09-24T17:59:24.068Z,24.30
2018-09-24T18:02:18.202Z,24.70
2018-09-24T18:05:09.558Z,24.80
2018-09-24T18:08:04.739Z,24.30
2018-09-24T18:10:58.867Z,24.40
2018-09-24T18:13:52.724Z,25.10
2018-09-24T18:19:36.057Z,25.00
2018-09-24T18:22:29.283Z,25.10
2018-09-24T18:28:43.182Z,25.90
2018-09-24T18:31:24.907Z,25.30
2018-09-24T18:34:14.157Z,24.60
2018-09-24T18:37:05.092Z,25.60
2018-09-24T18:39:58.903Z,25.40
2018-09-24T18:42:52.383Z,25.60
2018-09-24T18:45:44.971Z,26.10
2018-09-24T18:48:41.772Z,26.70
2018-09-24T18:51:26.918Z,26.90
2018-09-24T18:54:41.061Z,25.50
2018-09-24T18:57:18.998Z,25.50
2018-09-24T18:59:56.729Z,25.60
2018-09-24T19:02:35.044Z,25.60
2018-09-24T19:05:23.901Z,25.40
2018-09-24T19:08:16.549Z,24.60
2018-09-24T19:11:12.110Z,25.50
2018-09-24T19:13:58.865Z,26.90
2018-09-24T19:16:52.560Z,26.90
2018-09-24T19:19:46.115Z,26.40
2018-09-24T19:22:36.670Z,25.60
2018-09-24T19:25:27.178Z,25.60
2018-09-24T19:28:21.754Z,25.40
2018-09-24T19:34:09.430Z,25.70
2018-09-24T19:37:04.098Z,25.60
2018-09-24T19:40:07.579Z,25.40
2018-09-24T19:42:44.863Z,26.00
2018-09-24T19:45:22.056Z,25.80
2018-09-24T19:47:59.647Z,25.40
2018-09-24T19:50:36.920Z,25.00
2018-09-24T19:53:13.858Z,24.70
2018-09-24T19:55:51.764Z,25.00
2018-09-24T19:58:28.832Z,25.70
2018-09-24T20:01:06.092Z,26.50
2018-09-24T20:03:43.403Z,25.70
2018-09-24T20:06:21.314Z,25.30
2018-09-24T20:08:58.868Z,24.50
2018-09-24T20:11:36.004Z,24.40
2018-09-24T20:14:13.671Z,24.20
2018-09-24T20:16:51.425Z,24.80
2018-09-24T20:19:28.883Z,24.90
2018-09-24T20:22:06.280Z,24.80
2018-09-24T20:24:43.559Z,24.60
2018-09-24T20:27:22.864Z,25.10
2018-09-24T20:29:59.718Z,24.90
2018-09-24T20:32:36.983Z,25.20
2018-09-24T20:35:14.744Z,24.90
2018-09-24T20:37:52.165Z,24.60
2018-09-24T20:40:29.282Z,24.20
2018-09-24T20:43:06.632Z,24.10
2018-09-24T20:45:44.026Z,24.10
2018-09-24T20:48:22.046Z,24.00
2018-09-24T20:51:25.922Z,24.10
2018-09-24T20:54:03.759Z,24.00
2018-09-24T20:56:40.410Z,24.10
2018-09-24T20:59:17.933Z,24.40
2018-09-24T21:01:54.824Z,24.30
2018-09-24T21:04:32.693Z,24.00
2018-09-24T21:07:10.182Z,23.80
2018-09-24T21:09:47.080Z,23.70
2018-09-24T21:12:24.503Z,23.60
2018-09-24T21:15:07.984Z,23.50
2018-09-24T21:17:46.213Z,23.50
2018-09-24T21:20:26.914Z,23.70
2018-09-24T21:23:04.107Z,23.40
2018-09-24T21:25:42.310Z,23.30
2018-09-24T21:28:19.477Z,23.40
2018-09-24T21:30:56.327Z,23.40
2018-09-24T21:33:36.185Z,23.30
2018-09-24T21:36:19.920Z,23.10
2018-09-24T21:39:09.355Z,22.90
2018-09-24T21:41:47.174Z,22.90
2018-09-24T21:44:23.888Z,22.70
2018-09-24T21:47:01.260Z,22.80
2018-09-24T21:49:38.557Z,22.70
2018-09-24T21:55:37.091Z,22.60
2018-09-24T21:58:14.948Z,22.70
2018-09-24T22:00:52.536Z,22.60
2018-09-24T22:03:29.918Z,22.50
2018-09-24T22:06:08.343Z,22.50
2018-09-24T22:08:46.985Z,22.60
2018-09-24T22:11:24.460Z,22.60
2018-09-24T22:14:02.291Z,22.50
2018-09-24T22:16:40.116Z,22.40
2018-09-24T22:19:17.647Z,22.50
2018-09-24T22:21:55.033Z,22.40
2018-09-24T22:24:32.395Z,22.50
2018-09-24T22:27:09.784Z,22.50
2018-09-24T22:29:47.458Z,22.40
2018-09-24T22:32:25.250Z,22.20
2018-09-24T22:35:02.816Z,22.20
2018-09-24T22:37:40.155Z,22.20
2018-09-24T22:40:17.848Z,22.10
2018-09-24T22:43:02.766Z,22.10
2018-09-24T22:45:40.513Z,22.10
2018-09-24T22:48:18.000Z,22.10
2018-09-24T22:50:55.311Z,22.10
2018-09-24T22:53:32.662Z,22.10
2018-09-24T22:56:10.536Z,22.00
2018-09-24T22:58:48.219Z,21.90
2018-09-24T23:01:25.619Z,21.80
2018-09-24T23:04:03.000Z,21.80
2018-09-24T23:06:41.030Z,21.80
2018-09-24T23:09:18.523Z,21.80
2018-09-24T23:11:58.152Z,21.70
2018-09-24T23:14:35.632Z,21.70
2018-09-24T23:17:13.185Z,21.60
2018-09-24T23:19:50.938Z,21.60
2018-09-24T23:22:28.307Z,21.50
2018-09-24T23:25:05.805Z,21.50
2018-09-24T23:27:43.546Z,21.40
2018-09-24T23:30:21.108Z,21.40
2018-09-24T23:32:58.680Z,21.40
2018-09-24T23:35:36.338Z,21.50
2018-09-24T23:38:13.794Z,21.40
2018-09-24T23:40:51.850Z,21.40
2018-09-24T23:43:29.528Z,21.40
2018-09-24T23:46:07.262Z,21.40
2018-09-24T23:48:44.838Z,21.40
2018-09-24T23:54:47.941Z,21.20
2018-09-24T23:57:25.323Z,21.20
